sensor_id;sensor_type;location;lat;lon;timestamp;pressure;altitude;pressure_sealevel;temperature;humidity
64717;BME280;51146;50.274;19.000;2022-07-10T00:00:44;98525.03;;;14.69;50.85
64717;BME280;51146;50.274;19.000;2022-07-10T00:03:11;98518.88;;;14.67;50.96
64717;BME280;51146;50.274;19.000;2022-07-10T00:05:38;98520.75;;;14.66;50.98
64717;BME280;51146;50.274;19.000;2022-07-10T00:08:05;98513.59;;;14.65;51.12
64717;BME280;51146;50.274;19.000;2022-07-10T00:10:32;98517.34;;;14.64;51.07
64717;BME280;51146;50.274;19.000;2022-07-10T00:13:00;98511.31;;;14.60;51.25
64717;BME280;51146;50.274;19.000;2022-07-10T00:15:26;98513.16;;;14.60;51.32
64717;BME280;51146;50.274;19.000;2022-07-10T00:17:54;98512.31;;;14.59;51.41
64717;BME280;51146;50.274;19.000;2022-07-10T00:20:21;98508.59;;;14.60;51.46
64717;BME280;51146;50.274;19.000;2022-07-10T00:22:48;98503.44;;;14.57;51.57
64717;BME280;51146;50.274;19.000;2022-07-10T00:25:15;98502.59;;;14.57;51.68
64717;BME280;51146;50.274;19.000;2022-07-10T00:27:42;98504.31;;;14.58;51.57
64717;BME280;51146;50.274;19.000;2022-07-10T00:30:10;98493.59;;;14.56;51.55
64717;BME280;51146;50.274;19.000;2022-07-10T00:32:37;98491.03;;;14.55;51.52
64717;BME280;51146;50.274;19.000;2022-07-10T00:35:05;98492.34;;;14.51;51.89
64717;BME280;51146;50.274;19.000;2022-07-10T00:37:32;98486.31;;;14.47;51.92
64717;BME280;51146;50.274;19.000;2022-07-10T00:39:59;98495.78;;;14.43;52.16
64717;BME280;51146;50.274;19.000;2022-07-10T00:42:26;98477.03;;;14.40;52.18
64717;BME280;51146;50.274;19.000;2022-07-10T00:44:53;98485.34;;;14.38;52.48
64717;BME280;51146;50.274;19.000;2022-07-10T00:47:20;98478.47;;;14.34;52.47
64717;BME280;51146;50.274;19.000;2022-07-10T00:49:47;98478.63;;;14.33;52.67
64717;BME280;51146;50.274;19.000;2022-07-10T00:52:15;98482.63;;;14.29;52.83
64717;BME280;51146;50.274;19.000;2022-07-10T00:54:48;98472.63;;;14.19;52.92
64717;BME280;51146;50.274;19.000;2022-07-10T00:57:17;98479.50;;;14.14;52.99
64717;BME280;51146;50.274;19.000;2022-07-10T00:59:45;98487.13;;;14.10;53.39
64717;BME280;51146;50.274;19.000;2022-07-10T01:02:13;98480.41;;;14.05;53.34
64717;BME280;51146;50.274;19.000;2022-07-10T01:04:40;98480.09;;;13.98;53.45
64717;BME280;51146;50.274;19.000;2022-07-10T01:07:07;98475.25;;;13.92;53.77
64717;BME280;51146;50.274;19.000;2022-07-10T01:09:34;98470.41;;;13.86;53.88
64717;BME280;51146;50.274;19.000;2022-07-10T01:12:02;98476.22;;;13.81;54.06
64717;BME280;51146;50.274;19.000;2022-07-10T01:14:30;98469.34;;;13.77;54.18
64717;BME280;51146;50.274;19.000;2022-07-10T01:16:57;98472.50;;;13.72;54.13
64717;BME280;51146;50.274;19.000;2022-07-10T01:19:25;98463.94;;;13.67;54.65
64717;BME280;51146;50.274;19.000;2022-07-10T01:21:51;98466.19;;;13.62;54.67
64717;BME280;51146;50.274;19.000;2022-07-10T01:24:18;98468.19;;;13.60;54.93
64717;BME280;51146;50.274;19.000;2022-07-10T01:26:45;98468.34;;;13.58;54.96
64717;BME280;51146;50.274;19.000;2022-07-10T01:29:12;98463.78;;;13.59;55.12
64717;BME280;51146;50.274;19.000;2022-07-10T01:31:39;98467.34;;;13.59;55.01
64717;BME280;51146;50.274;19.000;2022-07-10T01:34:07;98475.50;;;13.59;55.23
64717;BME280;51146;50.274;19.000;2022-07-10T01:36:36;98465.63;;;13.58;55.12
64717;BME280;51146;50.274;19.000;2022-07-10T01:39:04;98465.91;;;13.55;55.18
64717;BME280;51146;50.274;19.000;2022-07-10T01:41:31;98463.34;;;13.54;55.54
64717;BME280;51146;50.274;19.000;2022-07-10T01:43:58;98446.34;;;13.52;55.52
64717;BME280;51146;50.274;19.000;2022-07-10T01:46:25;98451.50;;;13.55;55.70
64717;BME280;51146;50.274;19.000;2022-07-10T01:48:52;98447.63;;;13.57;55.62
64717;BME280;51146;50.274;19.000;2022-07-10T01:51:20;98461.91;;;13.59;55.42
64717;BME280;51146;50.274;19.000;2022-07-10T01:53:47;98451.78;;;13.61;55.68
64717;BME280;51146;50.274;19.000;2022-07-10T01:56:15;98446.78;;;13.57;55.83
64717;BME280;51146;50.274;19.000;2022-07-10T01:58:42;98442.34;;;13.56;55.87
64717;BME280;51146;50.274;19.000;2022-07-10T02:01:10;98442.78;;;13.51;55.97
64717;BME280;51146;50.274;19.000;2022-07-10T02:03:38;98438.47;;;13.49;56.08
64717;BME280;51146;50.274;19.000;2022-07-10T02:06:24;98431.50;;;13.46;56.16
64717;BME280;51146;50.274;19.000;2022-07-10T02:08:51;98427.78;;;13.47;56.25
64717;BME280;51146;50.274;19.000;2022-07-10T02:11:18;98418.78;;;13.47;56.45
64717;BME280;51146;50.274;19.000;2022-07-10T02:13:44;98422.38;;;13.47;56.25
64717;BME280;51146;50.274;19.000;2022-07-10T02:16:12;98421.34;;;13.48;56.46
64717;BME280;51146;50.274;19.000;2022-07-10T02:18:40;98425.63;;;13.51;56.48
64717;BME280;51146;50.274;19.000;2022-07-10T02:21:08;98420.19;;;13.51;56.57
64717;BME280;51146;50.274;19.000;2022-07-10T02:23:35;98419.66;;;13.57;56.53
64717;BME280;51146;50.274;19.000;2022-07-10T02:26:02;98422.94;;;13.60;56.45
64717;BME280;51146;50.274;19.000;2022-07-10T02:28:31;98423.50;;;13.64;56.32
64717;BME280;51146;50.274;19.000;2022-07-10T02:30:58;98416.09;;;13.66;56.56
64717;BME280;51146;50.274;19.000;2022-07-10T02:33:25;98430.50;;;13.67;56.42
64717;BME280;51146;50.274;19.000;2022-07-10T02:35:52;98421.34;;;13.68;56.34
64717;BME280;51146;50.274;19.000;2022-07-10T02:38:18;98414.81;;;13.70;56.56
64717;BME280;51146;50.274;19.000;2022-07-10T02:40:45;98410.94;;;13.73;56.48
64717;BME280;51146;50.274;19.000;2022-07-10T02:43:13;98410.78;;;13.74;56.47
64717;BME280;51146;50.274;19.000;2022-07-10T02:45:39;98405.50;;;13.73;56.61
64717;BME280;51146;50.274;19.000;2022-07-10T02:48:12;98403.50;;;13.75;56.53
64717;BME280;51146;50.274;19.000;2022-07-10T02:50:40;98410.22;;;13.80;56.43
64717;BME280;51146;50.274;19.000;2022-07-10T02:53:07;98409.22;;;13.81;56.21
64717;BME280;51146;50.274;19.000;2022-07-10T02:55:33;98406.34;;;13.83;56.46
64717;BME280;51146;50.274;19.000;2022-07-10T02:58:00;98408.94;;;13.85;56.41
64717;BME280;51146;50.274;19.000;2022-07-10T03:00:27;98406.94;;;13.87;56.22
64717;BME280;51146;50.274;19.000;2022-07-10T03:02:55;98406.66;;;13.90;56.18
64717;BME280;51146;50.274;19.000;2022-07-10T03:05:22;98398.06;;;13.94;56.22
64717;BME280;51146;50.274;19.000;2022-07-10T03:07:49;98396.06;;;13.96;55.92
64717;BME280;51146;50.274;19.000;2022-07-10T03:10:16;98394.22;;;13.97;55.92
64717;BME280;51146;50.274;19.000;2022-07-10T03:12:43;98388.63;;;13.98;55.69
64717;BME280;51146;50.274;19.000;2022-07-10T03:15:10;98388.63;;;13.98;55.74
64717;BME280;51146;50.274;19.000;2022-07-10T03:17:37;98384.22;;;13.97;55.85
64717;BME280;51146;50.274;19.000;2022-07-10T03:20:04;98389.66;;;13.97;55.76
64717;BME280;51146;50.274;19.000;2022-07-10T03:22:31;98391.34;;;13.98;55.82
64717;BME280;51146;50.274;19.000;2022-07-10T03:24:59;98390.94;;;14.03;55.60
64717;BME280;51146;50.274;19.000;2022-07-10T03:27:25;98375.47;;;14.03;55.79
64717;BME280;51146;50.274;19.000;2022-07-10T03:29:52;98374.91;;;14.00;55.97
64717;BME280;51146;50.274;19.000;2022-07-10T03:32:19;98382.81;;;13.93;56.16
64717;BME280;51146;50.274;19.000;2022-07-10T03:34:46;98382.63;;;13.95;55.90
64717;BME280;51146;50.274;19.000;2022-07-10T03:37:13;98378.66;;;13.99;56.01
64717;BME280;51146;50.274;19.000;2022-07-10T03:39:40;98380.66;;;13.97;55.83
64717;BME280;51146;50.274;19.000;2022-07-10T03:42:07;98388.50;;;14.00;55.77
64717;BME280;51146;50.274;19.000;2022-07-10T03:44:34;98378.47;;;14.00;55.75
64717;BME280;51146;50.274;19.000;2022-07-10T03:47:00;98395.78;;;13.99;55.87
64717;BME280;51146;50.274;19.000;2022-07-10T03:49:27;98390.63;;;13.96;55.63
64717;BME280;51146;50.274;19.000;2022-07-10T03:51:54;98383.66;;;13.94;55.69
64717;BME280;51146;50.274;19.000;2022-07-10T03:54:21;98390.38;;;13.90;55.98
64717;BME280;51146;50.274;19.000;2022-07-10T03:56:47;98400.22;;;13.91;55.96
64717;BME280;51146;50.274;19.000;2022-07-10T03:59:33;98402.94;;;13.91;56.24
64717;BME280;51146;50.274;19.000;2022-07-10T04:02:00;98401.94;;;13.92;56.09
64717;BME280;51146;50.274;19.000;2022-07-10T04:04:27;98398.22;;;13.93;56.35
64717;BME280;51146;50.274;19.000;2022-07-10T04:06:54;98410.81;;;13.94;56.50
64717;BME280;51146;50.274;19.000;2022-07-10T04:09:21;98402.78;;;13.92;56.35
64717;BME280;51146;50.274;19.000;2022-07-10T04:11:48;98410.09;;;13.92;56.48
64717;BME280;51146;50.274;19.000;2022-07-10T04:14:15;98406.66;;;13.90;56.70
64717;BME280;51146;50.274;19.000;2022-07-10T04:16:42;98402.22;;;13.89;56.72
64717;BME280;51146;50.274;19.000;2022-07-10T04:19:09;98388.66;;;13.89;56.84
64717;BME280;51146;50.274;19.000;2022-07-10T04:21:36;98397.38;;;13.92;56.82
64717;BME280;51146;50.274;19.000;2022-07-10T04:24:04;98401.50;;;13.96;56.76
64717;BME280;51146;50.274;19.000;2022-07-10T04:26:32;98393.63;;;14.03;56.82
64717;BME280;51146;50.274;19.000;2022-07-10T04:28:59;98402.34;;;14.07;56.68
64717;BME280;51146;50.274;19.000;2022-07-10T04:31:26;98398.19;;;14.12;56.80
64717;BME280;51146;50.274;19.000;2022-07-10T04:33:53;98398.75;;;14.16;56.61
64717;BME280;51146;50.274;19.000;2022-07-10T04:36:20;98393.88;;;14.19;56.68
64717;BME280;51146;50.274;19.000;2022-07-10T04:38:46;98395.47;;;14.22;56.59
64717;BME280;51146;50.274;19.000;2022-07-10T04:41:13;98397.47;;;14.20;56.56
64717;BME280;51146;50.274;19.000;2022-07-10T04:43:40;98399.47;;;14.18;56.57
64717;BME280;51146;50.274;19.000;2022-07-10T04:46:08;98398.16;;;14.22;56.60
64717;BME280;51146;50.274;19.000;2022-07-10T04:48:35;98391.44;;;14.26;56.68
64717;BME280;51146;50.274;19.000;2022-07-10T04:51:02;98399.56;;;14.36;56.49
64717;BME280;51146;50.274;19.000;2022-07-10T04:53:28;98395.50;;;14.50;56.43
64717;BME280;51146;50.274;19.000;2022-07-10T04:55:55;98399.00;;;14.60;56.20
64717;BME280;51146;50.274;19.000;2022-07-10T04:58:22;98401.88;;;14.68;55.86
64717;BME280;51146;50.274;19.000;2022-07-10T05:00:48;98403.50;;;14.79;55.77
64717;BME280;51146;50.274;19.000;2022-07-10T05:03:15;98413.13;;;14.83;55.32
64717;BME280;51146;50.274;19.000;2022-07-10T05:05:42;98411.13;;;14.85;55.10
64717;BME280;51146;50.274;19.000;2022-07-10T05:08:09;98416.38;;;14.87;55.04
64717;BME280;51146;50.274;19.000;2022-07-10T05:10:36;98418.19;;;14.96;54.99
64717;BME280;51146;50.274;19.000;2022-07-10T05:13:03;98418.28;;;15.04;54.55
64717;BME280;51146;50.274;19.000;2022-07-10T05:15:30;98415.28;;;15.07;54.36
64717;BME280;51146;50.274;19.000;2022-07-10T05:17:56;98417.53;;;15.12;54.21
64717;BME280;51146;50.274;19.000;2022-07-10T05:20:23;98415.06;;;15.18;53.92
64717;BME280;51146;50.274;19.000;2022-07-10T05:22:50;98420.34;;;15.20;53.85
64717;BME280;51146;50.274;19.000;2022-07-10T05:25:17;98415.75;;;15.20;53.51
64717;BME280;51146;50.274;19.000;2022-07-10T05:27:43;98413.59;;;15.24;53.34
64717;BME280;51146;50.274;19.000;2022-07-10T05:30:10;98415.00;;;15.28;53.26
64717;BME280;51146;50.274;19.000;2022-07-10T05:32:44;98414.69;;;15.31;52.95
64717;BME280;51146;50.274;19.000;2022-07-10T05:35:13;98414.69;;;15.31;52.65
64717;BME280;51146;50.274;19.000;2022-07-10T05:37:40;98404.66;;;15.32;52.54
64717;BME280;51146;50.274;19.000;2022-07-10T05:40:09;98406.69;;;15.30;52.54
64717;BME280;51146;50.274;19.000;2022-07-10T05:42:36;98414.84;;;15.30;52.52
64717;BME280;51146;50.274;19.000;2022-07-10T05:45:03;98415.84;;;15.29;52.41
64717;BME280;51146;50.274;19.000;2022-07-10T05:47:33;98411.50;;;15.36;51.82
64717;BME280;51146;50.274;19.000;2022-07-10T05:50:00;98404.03;;;15.38;51.80
64717;BME280;51146;50.274;19.000;2022-07-10T05:52:26;98401.31;;;15.38;51.98
64717;BME280;51146;50.274;19.000;2022-07-10T05:54:56;98404.75;;;15.40;52.00
64717;BME280;51146;50.274;19.000;2022-07-10T05:57:23;98411.34;;;15.55;52.00
64717;BME280;51146;50.274;19.000;2022-07-10T05:59:50;98399.78;;;15.71;51.54
64717;BME280;51146;50.274;19.000;2022-07-10T06:02:18;98397.22;;;15.88;51.05
64717;BME280;51146;50.274;19.000;2022-07-10T06:04:50;98407.16;;;15.97;50.74
64717;BME280;51146;50.274;19.000;2022-07-10T06:07:18;98391.56;;;16.07;50.33
64717;BME280;51146;50.274;19.000;2022-07-10T06:09:44;98400.50;;;16.17;49.95
64717;BME280;51146;50.274;19.000;2022-07-10T06:12:11;98397.53;;;16.29;49.89
64717;BME280;51146;50.274;19.000;2022-07-10T06:14:38;98395.28;;;16.32;49.35
64717;BME280;51146;50.274;19.000;2022-07-10T06:17:05;98398.91;;;16.33;49.35
64717;BME280;51146;50.274;19.000;2022-07-10T06:19:32;98395.69;;;16.37;49.57
64717;BME280;51146;50.274;19.000;2022-07-10T06:21:58;98398.63;;;16.44;48.96
64717;BME280;51146;50.274;19.000;2022-07-10T06:24:43;98400.28;;;16.37;49.10
64717;BME280;51146;50.274;19.000;2022-07-10T06:27:10;98410.66;;;16.33;49.50
64717;BME280;51146;50.274;19.000;2022-07-10T06:29:38;98413.41;;;16.42;48.99
64717;BME280;51146;50.274;19.000;2022-07-10T06:32:05;98403.47;;;16.59;48.74
64717;BME280;51146;50.274;19.000;2022-07-10T06:34:32;98401.03;;;16.73;48.36
64717;BME280;51146;50.274;19.000;2022-07-10T06:36:59;98405.31;;;16.84;48.47
64717;BME280;51146;50.274;19.000;2022-07-10T06:39:26;98408.56;;;16.88;47.80
64717;BME280;51146;50.274;19.000;2022-07-10T06:41:53;98414.91;;;16.88;47.33
64717;BME280;51146;50.274;19.000;2022-07-10T06:44:21;98420.28;;;16.80;47.55
64717;BME280;51146;50.274;19.000;2022-07-10T06:46:48;98417.38;;;16.73;47.75
64717;BME280;51146;50.274;19.000;2022-07-10T06:49:35;98416.53;;;16.73;47.50
64717;BME280;51146;50.274;19.000;2022-07-10T06:52:02;98410.59;;;16.78;47.11
64717;BME280;51146;50.274;19.000;2022-07-10T06:54:37;98410.59;;;16.86;47.62
64717;BME280;51146;50.274;19.000;2022-07-10T06:57:04;98414.25;;;17.03;47.00
64717;BME280;51146;50.274;19.000;2022-07-10T06:59:32;98420.94;;;17.08;46.29
64717;BME280;51146;50.274;19.000;2022-07-10T07:01:59;98413.06;;;17.05;45.87
64717;BME280;51146;50.274;19.000;2022-07-10T07:04:26;98417.69;;;17.05;45.09
64717;BME280;51146;50.274;19.000;2022-07-10T07:06:52;98416.31;;;17.09;44.66
64717;BME280;51146;50.274;19.000;2022-07-10T07:09:19;98430.69;;;17.19;44.04
64717;BME280;51146;50.274;19.000;2022-07-10T07:11:48;98414.66;;;17.24;44.04
64717;BME280;51146;50.274;19.000;2022-07-10T07:14:15;98425.56;;;17.24;43.92
64717;BME280;51146;50.274;19.000;2022-07-10T07:16:42;98420.31;;;17.31;44.00
64717;BME280;51146;50.274;19.000;2022-07-10T07:19:11;98419.50;;;17.39;43.48
64717;BME280;51146;50.274;19.000;2022-07-10T07:21:44;98417.28;;;17.42;43.54
64717;BME280;51146;50.274;19.000;2022-07-10T07:24:29;98417.47;;;17.49;43.05
64717;BME280;51146;50.274;19.000;2022-07-10T07:26:56;98421.25;;;17.56;42.90
64717;BME280;51146;50.274;19.000;2022-07-10T07:29:23;98428.25;;;17.59;42.49
64717;BME280;51146;50.274;19.000;2022-07-10T07:31:50;98423.63;;;17.51;42.43
64717;BME280;51146;50.274;19.000;2022-07-10T07:34:16;98429.91;;;17.43;42.06
64717;BME280;51146;50.274;19.000;2022-07-10T07:36:43;98427.69;;;17.39;42.06
64717;BME280;51146;50.274;19.000;2022-07-10T07:39:10;98432.47;;;17.37;42.18
64717;BME280;51146;50.274;19.000;2022-07-10T07:41:37;98433.97;;;17.31;42.00
64717;BME280;51146;50.274;19.000;2022-07-10T07:44:04;98436.84;;;17.21;41.88
64717;BME280;51146;50.274;19.000;2022-07-10T07:46:30;98441.94;;;17.16;41.87
64717;BME280;51146;50.274;19.000;2022-07-10T07:48:57;98445.66;;;17.07;41.62
64717;BME280;51146;50.274;19.000;2022-07-10T07:51:24;98449.00;;;16.92;41.70
64717;BME280;51146;50.274;19.000;2022-07-10T07:53:51;98442.13;;;16.80;41.23
64717;BME280;51146;50.274;19.000;2022-07-10T07:56:17;98449.75;;;16.76;41.05
64717;BME280;51146;50.274;19.000;2022-07-10T07:58:44;98445.88;;;16.79;41.21
64717;BME280;51146;50.274;19.000;2022-07-10T08:01:11;98449.47;;;16.88;41.26
64717;BME280;51146;50.274;19.000;2022-07-10T08:03:39;98437.59;;;16.97;41.54
64717;BME280;51146;50.274;19.000;2022-07-10T08:06:28;98435.59;;;17.07;41.45
64717;BME280;51146;50.274;19.000;2022-07-10T08:08:55;98446.19;;;17.10;41.72
64717;BME280;51146;50.274;19.000;2022-07-10T08:11:22;98438.88;;;17.19;41.21
64717;BME280;51146;50.274;19.000;2022-07-10T08:13:49;98444.44;;;17.44;41.27
64717;BME280;51146;50.274;19.000;2022-07-10T08:16:16;98433.38;;;17.70;40.57
64717;BME280;51146;50.274;19.000;2022-07-10T08:18:42;98430.34;;;18.06;40.22
64717;BME280;51146;50.274;19.000;2022-07-10T08:21:10;98436.81;;;18.38;39.73
64717;BME280;51146;50.274;19.000;2022-07-10T08:23:37;98431.13;;;18.64;38.99
64717;BME280;51146;50.274;19.000;2022-07-10T08:26:03;98426.97;;;18.84;38.41
64717;BME280;51146;50.274;19.000;2022-07-10T08:28:32;98435.47;;;18.98;37.78
64717;BME280;51146;50.274;19.000;2022-07-10T08:30:58;98430.13;;;19.13;37.50
64717;BME280;51146;50.274;19.000;2022-07-10T08:33:25;98440.88;;;19.22;37.05
64717;BME280;51146;50.274;19.000;2022-07-10T08:35:52;98443.25;;;19.25;36.93
64717;BME280;51146;50.274;19.000;2022-07-10T08:38:19;98436.81;;;19.10;36.83
64717;BME280;51146;50.274;19.000;2022-07-10T08:40:46;98441.78;;;19.06;37.00
64717;BME280;51146;50.274;19.000;2022-07-10T08:43:15;98439.28;;;18.88;36.80
64717;BME280;51146;50.274;19.000;2022-07-10T08:45:42;98447.03;;;18.60;37.17
64717;BME280;51146;50.274;19.000;2022-07-10T08:48:12;98451.16;;;18.23;37.21
64717;BME280;51146;50.274;19.000;2022-07-10T08:50:45;98454.59;;;18.01;37.82
64717;BME280;51146;50.274;19.000;2022-07-10T08:53:23;98447.59;;;17.90;38.30
64717;BME280;51146;50.274;19.000;2022-07-10T08:55:50;98452.19;;;17.89;38.19
64717;BME280;51146;50.274;19.000;2022-07-10T08:58:18;98460.06;;;17.84;38.28
64717;BME280;51146;50.274;19.000;2022-07-10T09:00:46;98455.28;;;17.86;37.75
64717;BME280;51146;50.274;19.000;2022-07-10T09:03:13;98459.53;;;17.89;37.72
64717;BME280;51146;50.274;19.000;2022-07-10T09:05:39;98461.94;;;17.92;37.48
64717;BME280;51146;50.274;19.000;2022-07-10T09:08:23;98458.50;;;18.06;37.16
64717;BME280;51146;50.274;19.000;2022-07-10T09:10:50;98456.81;;;18.22;37.13
64717;BME280;51146;50.274;19.000;2022-07-10T09:13:19;98456.31;;;18.35;37.00
64717;BME280;51146;50.274;19.000;2022-07-10T09:15:49;98453.75;;;18.49;36.49
64717;BME280;51146;50.274;19.000;2022-07-10T09:18:18;98455.22;;;18.68;36.43
64717;BME280;51146;50.274;19.000;2022-07-10T09:20:45;98449.88;;;18.92;35.78
64717;BME280;51146;50.274;19.000;2022-07-10T09:23:20;98446.03;;;19.17;35.22
64717;BME280;51146;50.274;19.000;2022-07-10T09:25:51;98446.59;;;19.44;35.04
64717;BME280;51146;50.274;19.000;2022-07-10T09:28:20;98441.91;;;19.76;34.47
64717;BME280;51146;50.274;19.000;2022-07-10T09:30:48;98447.88;;;20.25;33.82
64717;BME280;51146;50.274;19.000;2022-07-10T09:33:25;98444.50;;;20.61;33.30
64717;BME280;51146;50.274;19.000;2022-07-10T09:36:02;98437.56;;;21.10;31.94
64717;BME280;51146;50.274;19.000;2022-07-10T09:41:19;98440.75;;;21.95;31.01
64717;BME280;51146;50.274;19.000;2022-07-10T09:43:55;98438.22;;;22.43;30.02
64717;BME280;51146;50.274;19.000;2022-07-10T09:46:36;98429.63;;;22.81;29.65
64717;BME280;51146;50.274;19.000;2022-07-10T09:49:11;98427.84;;;23.08;29.34
64717;BME280;51146;50.274;19.000;2022-07-10T09:51:39;98431.91;;;23.12;29.08
64717;BME280;51146;50.274;19.000;2022-07-10T09:54:13;98427.59;;;23.03;28.60
64717;BME280;51146;50.274;19.000;2022-07-10T09:59:12;98429.28;;;22.63;28.33
64717;BME280;51146;50.274;19.000;2022-07-10T10:01:43;98447.19;;;22.30;28.66
64717;BME280;51146;50.274;19.000;2022-07-10T10:04:15;98448.66;;;22.05;28.37
64717;BME280;51146;50.274;19.000;2022-07-10T10:06:42;98451.13;;;21.78;28.80
64717;BME280;51146;50.274;19.000;2022-07-10T10:09:22;98451.97;;;21.42;29.04
64717;BME280;51146;50.274;19.000;2022-07-10T10:11:57;98461.66;;;20.93;29.13
64717;BME280;51146;50.274;19.000;2022-07-10T10:14:26;98454.25;;;20.41;29.66
64717;BME280;51146;50.274;19.000;2022-07-10T10:16:55;98454.63;;;20.00;30.39
64717;BME280;51146;50.274;19.000;2022-07-10T10:19:23;98456.22;;;19.63;30.91
64717;BME280;51146;50.274;19.000;2022-07-10T10:22:09;98454.19;;;19.25;31.46
64717;BME280;51146;50.274;19.000;2022-07-10T10:24:42;98452.56;;;19.00;32.14
64717;BME280;51146;50.274;19.000;2022-07-10T10:27:09;98444.41;;;18.83;32.45
64717;BME280;51146;50.274;19.000;2022-07-10T10:29:38;98441.72;;;18.75;32.67
64717;BME280;51146;50.274;19.000;2022-07-10T10:32:07;98435.91;;;18.78;32.92
64717;BME280;51146;50.274;19.000;2022-07-10T10:34:45;98433.25;;;18.93;33.33
64717;BME280;51146;50.274;19.000;2022-07-10T10:39:55;98425.56;;;19.91;32.81
64717;BME280;51146;50.274;19.000;2022-07-10T10:42:38;98419.59;;;20.93;32.27
64717;BME280;51146;50.274;19.000;2022-07-10T10:45:33;98414.09;;;22.45;30.49
64717;BME280;51146;50.274;19.000;2022-07-10T10:48:05;98421.84;;;24.21;28.31
64717;BME280;51146;50.274;19.000;2022-07-10T10:50:55;98422.81;;;25.65;26.63
64717;BME280;51146;50.274;19.000;2022-07-10T10:53:27;98410.94;;;26.54;25.05
64717;BME280;51146;50.274;19.000;2022-07-10T11:06:52;98412.88;;;25.51;24.08
64717;BME280;51146;50.274;19.000;2022-07-10T11:14:32;98420.97;;;24.47;24.01
64717;BME280;51146;50.274;19.000;2022-07-10T11:17:00;98426.22;;;23.82;24.69
64717;BME280;51146;50.274;19.000;2022-07-10T11:19:28;98427.31;;;23.26;25.25
64717;BME280;51146;50.274;19.000;2022-07-10T11:22:42;98424.06;;;22.74;25.56
64717;BME280;51146;50.274;19.000;2022-07-10T11:28:08;98433.22;;;21.31;27.41
64717;BME280;51146;50.274;19.000;2022-07-10T11:30:51;98439.31;;;20.67;28.23
64717;BME280;51146;50.274;19.000;2022-07-10T11:33:20;98449.28;;;20.21;28.75
64717;BME280;51146;50.274;19.000;2022-07-10T11:35:51;98436.34;;;19.92;29.09
64717;BME280;51146;50.274;19.000;2022-07-10T11:38:22;98436.25;;;19.77;29.56
64717;BME280;51146;50.274;19.000;2022-07-10T11:40:50;98440.13;;;19.60;29.92
64717;BME280;51146;50.274;19.000;2022-07-10T11:43:19;98436.31;;;19.46;30.35
64717;BME280;51146;50.274;19.000;2022-07-10T11:45:51;98444.34;;;19.47;30.40
64717;BME280;51146;50.274;19.000;2022-07-10T11:48:20;98433.38;;;19.47;30.53
64717;BME280;51146;50.274;19.000;2022-07-10T11:50:49;98432.34;;;19.48;30.69
64717;BME280;51146;50.274;19.000;2022-07-10T11:53:26;98430.41;;;19.57;30.56
64717;BME280;51146;50.274;19.000;2022-07-10T11:55:53;98430.66;;;19.71;30.39
64717;BME280;51146;50.274;19.000;2022-07-10T11:58:21;98427.47;;;19.90;30.15
64717;BME280;51146;50.274;19.000;2022-07-10T12:01:02;98425.81;;;20.04;30.06
64717;BME280;51146;50.274;19.000;2022-07-10T12:03:33;98438.75;;;20.10;29.37
64717;BME280;51146;50.274;19.000;2022-07-10T12:06:07;98430.19;;;20.13;29.20
64717;BME280;51146;50.274;19.000;2022-07-10T12:08:46;98435.66;;;20.13;29.22
64717;BME280;51146;50.274;19.000;2022-07-10T12:11:17;98433.69;;;20.22;29.06
64717;BME280;51146;50.274;19.000;2022-07-10T12:13:46;98433.91;;;20.35;28.69
64717;BME280;51146;50.274;19.000;2022-07-10T12:16:14;98426.47;;;20.44;28.70
64717;BME280;51146;50.274;19.000;2022-07-10T12:18:41;98434.28;;;20.55;29.17
64717;BME280;51146;50.274;19.000;2022-07-10T12:21:10;98438.25;;;20.68;28.74
64717;BME280;51146;50.274;19.000;2022-07-10T12:23:38;98433.44;;;20.84;28.33
64717;BME280;51146;50.274;19.000;2022-07-10T12:26:11;98430.88;;;20.98;28.19
64717;BME280;51146;50.274;19.000;2022-07-10T12:28:51;98432.94;;;21.11;28.72
64717;BME280;51146;50.274;19.000;2022-07-10T12:31:20;98439.84;;;21.21;28.78
64717;BME280;51146;50.274;19.000;2022-07-10T12:33:52;98441.75;;;21.36;28.25
64717;BME280;51146;50.274;19.000;2022-07-10T12:36:21;98441.63;;;21.44;28.13
64717;BME280;51146;50.274;19.000;2022-07-10T12:38:55;98449.56;;;21.54;28.54
64717;BME280;51146;50.274;19.000;2022-07-10T12:41:24;98440.09;;;21.56;28.05
64717;BME280;51146;50.274;19.000;2022-07-10T12:43:53;98446.84;;;21.39;28.10
64717;BME280;51146;50.274;19.000;2022-07-10T12:46:24;98444.00;;;21.17;28.15
64717;BME280;51146;50.274;19.000;2022-07-10T12:49:08;98440.44;;;20.87;28.48
64717;BME280;51146;50.274;19.000;2022-07-10T12:51:55;98443.84;;;20.59;29.17
64717;BME280;51146;50.274;19.000;2022-07-10T12:54:39;98447.31;;;20.53;29.34
64717;BME280;51146;50.274;19.000;2022-07-10T12:57:06;98442.69;;;20.54;29.61
64717;BME280;51146;50.274;19.000;2022-07-10T12:59:34;98444.22;;;20.71;29.67
64717;BME280;51146;50.274;19.000;2022-07-10T13:02:19;98439.59;;;21.01;29.33
64717;BME280;51146;50.274;19.000;2022-07-10T13:04:56;98441.47;;;21.31;28.51
64717;BME280;51146;50.274;19.000;2022-07-10T13:07:36;98438.16;;;21.35;28.71
64717;BME280;51146;50.274;19.000;2022-07-10T13:10:06;98439.38;;;21.33;28.51
64717;BME280;51146;50.274;19.000;2022-07-10T13:12:34;98443.53;;;21.14;28.63
64717;BME280;51146;50.274;19.000;2022-07-10T13:15:02;98431.22;;;21.39;28.23
64717;BME280;51146;50.274;19.000;2022-07-10T13:17:32;98439.66;;;21.74;27.92
64717;BME280;51146;50.274;19.000;2022-07-10T13:19:59;98426.84;;;22.03;28.06
64717;BME280;51146;50.274;19.000;2022-07-10T13:22:26;98434.69;;;22.28;27.64
64717;BME280;51146;50.274;19.000;2022-07-10T13:24:53;98429.75;;;22.45;27.03
64717;BME280;51146;50.274;19.000;2022-07-10T13:27:19;98431.41;;;22.39;26.39